createdAt,value
2023-08-17T00:00:23.810Z,102273.09
2023-08-17T00:02:50.615Z,102266.25
2023-08-17T00:05:17.177Z,102269.25
2023-08-17T00:07:43.665Z,102265.06
2023-08-17T00:10:10.629Z,102259.78
2023-08-17T00:12:37.125Z,102260.94
2023-08-17T00:15:04.021Z,102264.72
2023-08-17T00:17:31.310Z,102260.13
2023-08-17T00:19:57.977Z,102265.78
2023-08-17T00:22:24.616Z,102267.88
2023-08-17T00:24:51.126Z,102257.00
2023-08-17T00:27:17.648Z,102257.44
2023-08-17T00:29:44.362Z,102264.72
2023-08-17T00:32:10.886Z,102262.69
2023-08-17T00:34:37.337Z,102263.03
2023-08-17T00:37:04.214Z,102264.88
2023-08-17T00:39:30.703Z,102263.50
2023-08-17T00:41:57.203Z,102266.09
2023-08-17T00:44:23.713Z,102269.09
2023-08-17T00:46:50.276Z,102266.44
2023-08-17T00:49:16.866Z,102270.13
2023-08-17T00:51:43.317Z,102263.13
2023-08-17T00:54:11.274Z,102250.03
2023-08-17T00:56:38.219Z,102248.38
2023-08-17T00:59:05.488Z,102250.38
2023-08-17T01:01:32.156Z,102251.16
2023-08-17T01:03:58.871Z,102244.06
2023-08-17T01:06:25.360Z,102247.31
2023-08-17T01:08:51.823Z,102239.25
2023-08-17T01:11:37.294Z,102237.75
2023-08-17T01:14:11.033Z,102246.16
2023-08-17T01:16:47.046Z,102239.22
2023-08-17T01:19:18.227Z,102240.72
2023-08-17T01:21:51.377Z,102239.84
2023-08-17T01:24:17.943Z,102236.44
2023-08-17T01:26:44.388Z,102234.50
2023-08-17T01:29:10.927Z,102237.22
2023-08-17T01:32:06.016Z,102235.28
2023-08-17T01:34:35.517Z,102241.34
2023-08-17T01:37:07.298Z,102239.00
2023-08-17T01:39:45.280Z,102235.56
2023-08-17T01:42:14.073Z,102241.06
2023-08-17T01:44:41.036Z,102247.56
2023-08-17T01:47:07.643Z,102243.94
2023-08-17T01:49:34.235Z,102246.66
2023-08-17T01:52:01.977Z,102245.19
2023-08-17T01:54:28.544Z,102227.91
2023-08-17T01:56:55.104Z,102234.41
2023-08-17T01:59:21.657Z,102235.41
2023-08-17T02:01:48.141Z,102234.81
2023-08-17T02:04:15.618Z,102231.91
2023-08-17T02:06:42.113Z,102224.50
2023-08-17T02:09:08.562Z,102222.75
2023-08-17T02:11:35.045Z,102224.50
2023-08-17T02:14:01.508Z,102223.63
2023-08-17T02:16:28.013Z,102223.34
2023-08-17T02:18:54.570Z,102223.28
2023-08-17T02:21:21.087Z,102220.13
2023-08-17T02:23:47.660Z,102224.00
2023-08-17T02:26:14.200Z,102222.41
2023-08-17T02:28:40.722Z,102226.19
2023-08-17T02:31:07.639Z,102234.22
2023-08-17T02:33:34.791Z,102235.34
2023-08-17T02:36:02.500Z,102228.09
2023-08-17T02:38:29.096Z,102230.91
2023-08-17T02:40:55.611Z,102230.00
2023-08-17T02:43:22.108Z,102218.28
2023-08-17T02:45:48.595Z,102217.47
2023-08-17T02:48:15.046Z,102205.94
2023-08-17T02:50:41.580Z,102203.47
2023-08-17T02:53:08.075Z,102210.84
2023-08-17T02:55:34.796Z,102206.63
2023-08-17T02:58:01.282Z,102221.16
2023-08-17T03:00:27.798Z,102219.25
2023-08-17T03:02:55.115Z,102217.47
2023-08-17T03:05:21.750Z,102219.25
2023-08-17T03:07:48.209Z,102221.31
2023-08-17T03:10:14.974Z,102226.75
2023-08-17T03:12:41.508Z,102226.16
2023-08-17T03:15:08.148Z,102229.34
2023-08-17T03:17:34.743Z,102225.84
2023-08-17T03:20:01.312Z,102229.16
2023-08-17T03:22:28.065Z,102226.38
2023-08-17T03:24:56.618Z,102226.63
2023-08-17T03:27:23.575Z,102215.88
2023-08-17T03:29:50.287Z,102217.28
2023-08-17T03:32:16.779Z,102217.09
2023-08-17T03:34:43.298Z,102223.75
2023-08-17T03:37:09.741Z,102219.56
2023-08-17T03:39:36.287Z,102215.34
2023-08-17T03:42:02.972Z,102222.09
2023-08-17T03:44:29.413Z,102227.78
2023-08-17T03:46:55.919Z,102219.50
2023-08-17T03:49:22.784Z,102226.84
2023-08-17T03:51:49.253Z,102223.69
2023-08-17T03:54:15.734Z,102231.59
2023-08-17T03:56:42.210Z,102224.66
2023-08-17T03:59:08.672Z,102231.56
2023-08-17T04:01:35.172Z,102220.31
2023-08-17T04:04:01.641Z,102227.47
2023-08-17T04:06:28.103Z,102221.25
2023-08-17T04:08:54.575Z,102218.31
2023-08-17T04:11:21.020Z,102230.28
2023-08-17T04:13:47.471Z,102227.31
2023-08-17T04:16:14.034Z,102228.72
2023-08-17T04:18:40.659Z,102240.50
2023-08-17T04:21:07.227Z,102232.91
2023-08-17T04:23:33.694Z,102232.03
2023-08-17T04:26:00.184Z,102238.19
2023-08-17T04:28:26.681Z,102227.31
2023-08-17T04:30:53.181Z,102225.94
2023-08-17T04:33:19.728Z,102227.66
2023-08-17T04:35:49.356Z,102227.78
2023-08-17T04:38:15.841Z,102227.66
2023-08-17T04:40:42.650Z,102238.38
2023-08-17T04:43:10.992Z,102229.03
2023-08-17T04:45:38.178Z,102224.25
2023-08-17T04:48:05.621Z,102225.06
2023-08-17T04:50:32.111Z,102225.66
2023-08-17T04:52:58.668Z,102224.31
2023-08-17T04:55:25.177Z,102226.75
2023-08-17T04:57:51.604Z,102213.47
2023-08-17T05:00:18.750Z,102203.22
2023-08-17T05:02:45.457Z,102203.84
2023-08-17T05:05:12.059Z,102214.78
2023-08-17T05:07:38.554Z,102212.38
2023-08-17T05:10:05.287Z,102212.19
2023-08-17T05:12:31.815Z,102207.59
2023-08-17T05:14:58.320Z,102209.16
2023-08-17T05:17:25.057Z,102208.97
2023-08-17T05:19:52.619Z,102202.72
2023-08-17T05:22:19.205Z,102201.13
2023-08-17T05:24:45.680Z,102200.53
2023-08-17T05:27:12.227Z,102199.16
2023-08-17T05:29:38.799Z,102196.16
2023-08-17T05:32:05.730Z,102190.97
2023-08-17T05:34:32.317Z,102188.25
2023-08-17T05:36:58.933Z,102192.97
2023-08-17T05:39:25.793Z,102196.78
2023-08-17T05:41:52.396Z,102196.13
2023-08-17T05:44:19.154Z,102194.19
2023-08-17T05:46:45.765Z,102202.38
2023-08-17T05:49:12.292Z,102197.78
2023-08-17T05:51:38.856Z,102199.03
2023-08-17T05:54:05.612Z,102204.69
2023-08-17T05:56:32.544Z,102200.66
2023-08-17T05:58:59.060Z,102201.19
2023-08-17T06:01:25.578Z,102208.44
2023-08-17T06:03:52.100Z,102207.59
2023-08-17T06:06:18.572Z,102212.63
2023-08-17T06:08:45.170Z,102211.00
2023-08-17T06:11:11.650Z,102204.84
2023-08-17T06:13:38.154Z,102207.13
2023-08-17T06:16:04.905Z,102211.28
2023-08-17T06:18:32.030Z,102209.03
2023-08-17T06:20:58.491Z,102207.56
2023-08-17T06:23:25.206Z,102210.75
2023-08-17T06:25:51.942Z,102210.72
2023-08-17T06:28:18.458Z,102210.38
2023-08-17T06:30:44.945Z,102205.16
2023-08-17T06:33:11.409Z,102211.41
2023-08-17T06:35:37.896Z,102212.94
2023-08-17T06:38:04.576Z,102210.16
2023-08-17T06:40:31.144Z,102213.22
2023-08-17T06:42:57.652Z,102206.34
2023-08-17T06:45:24.200Z,102215.34
2023-08-17T06:47:50.866Z,102204.47
2023-08-17T06:50:17.483Z,102217.75
2023-08-17T06:52:44.109Z,102220.53
2023-08-17T06:55:11.594Z,102225.91
2023-08-17T06:57:38.162Z,102223.25
2023-08-17T07:00:08.722Z,102229.19
2023-08-17T07:02:50.967Z,102232.25
2023-08-17T07:05:20.457Z,102231.59
2023-08-17T07:07:47.103Z,102221.50
2023-08-17T07:10:13.592Z,102225.41
2023-08-17T07:12:40.771Z,102226.25
2023-08-17T07:15:08.634Z,102220.75
2023-08-17T07:17:35.605Z,102229.31
2023-08-17T07:22:32.081Z,102226.00
2023-08-17T07:24:58.733Z,102221.75
2023-08-17T07:27:25.776Z,102229.91
2023-08-17T07:29:52.648Z,102222.53
2023-08-17T07:32:20.108Z,102226.53
2023-08-17T07:34:46.608Z,102222.44
2023-08-17T07:37:15.689Z,102225.59
2023-08-17T07:39:42.927Z,102224.75
2023-08-17T07:42:09.802Z,102223.72
2023-08-17T07:44:36.737Z,102232.84
2023-08-17T07:47:03.380Z,102230.09
2023-08-17T07:49:32.557Z,102232.56
2023-08-17T07:51:59.461Z,102235.53
2023-08-17T07:54:26.042Z,102229.56
2023-08-17T07:56:52.568Z,102227.78
2023-08-17T07:59:19.012Z,102223.81
2023-08-17T08:01:45.607Z,102223.22
2023-08-17T08:04:12.259Z,102228.31
2023-08-17T08:06:38.785Z,102223.63
2023-08-17T08:09:05.470Z,102212.19
2023-08-17T08:11:31.981Z,102221.91
2023-08-17T08:13:58.769Z,102225.09
2023-08-17T08:16:25.325Z,102225.34
2023-08-17T08:18:51.774Z,102225.81
2023-08-17T08:21:18.285Z,102232.63
2023-08-17T08:23:44.682Z,102227.41
2023-08-17T08:26:11.192Z,102219.06
2023-08-17T08:28:37.729Z,102232.53
2023-08-17T08:31:04.906Z,102224.28
2023-08-17T08:33:32.069Z,102221.84
2023-08-17T08:35:58.530Z,102217.09
2023-08-17T08:38:25.490Z,102210.69
2023-08-17T08:40:52.356Z,102213.88
2023-08-17T08:43:19.213Z,102216.81
2023-08-17T08:45:46.846Z,102214.78
2023-08-17T08:48:15.410Z,102225.84
2023-08-17T08:50:42.602Z,102217.53
2023-08-17T08:53:15.775Z,102219.09
2023-08-17T08:55:53.063Z,102206.50
2023-08-17T08:58:20.224Z,102197.00
2023-08-17T09:00:48.600Z,102200.56
2023-08-17T09:03:19.319Z,102208.84
2023-08-17T09:05:50.842Z,102208.13
2023-08-17T09:08:22.355Z,102211.47
2023-08-17T09:10:51.864Z,102200.28
2023-08-17T09:13:18.441Z,102204.34
2023-08-17T09:15:44.965Z,102202.16
2023-08-17T09:18:13.748Z,102196.59
2023-08-17T09:20:47.293Z,102183.72
2023-08-17T09:23:17.944Z,102181.84
2023-08-17T09:25:46.275Z,102188.25
2023-08-17T09:28:15.686Z,102192.91
2023-08-17T09:30:56.482Z,102179.56
2023-08-17T09:33:27.827Z,102183.00
2023-08-17T09:35:59.461Z,102174.78
2023-08-17T09:38:28.437Z,102167.97
2023-08-17T09:40:55.733Z,102170.00
2023-08-17T09:43:22.432Z,102161.31
2023-08-17T09:45:51.086Z,102162.56
2023-08-17T09:48:18.839Z,102167.66
2023-08-17T09:50:47.240Z,102164.78
2023-08-17T09:53:20.264Z,102167.06
2023-08-17T09:55:47.546Z,102164.78
2023-08-17T09:58:17.581Z,102157.69
2023-08-17T10:00:50.446Z,102154.66
2023-08-17T10:03:19.540Z,102156.47
2023-08-17T10:05:55.688Z,102160.81
2023-08-17T10:08:24.212Z,102169.81
2023-08-17T10:10:56.610Z,102159.31
2023-08-17T10:13:36.235Z,102149.41
2023-08-17T10:16:30.189Z,102146.53
2023-08-17T10:19:24.057Z,102143.34
2023-08-17T10:22:30.567Z,102146.25
2023-08-17T10:25:00.414Z,102146.25
2023-08-17T10:27:27.901Z,102135.16
2023-08-17T10:29:54.992Z,102145.94
2023-08-17T10:32:23.370Z,102144.19
2023-08-17T10:34:52.215Z,102135.38
2023-08-17T10:37:20.201Z,102140.16
2023-08-17T10:39:48.100Z,102142.19
2023-08-17T10:44:49.173Z,102136.06
2023-08-17T10:47:26.009Z,102145.97
2023-08-17T10:50:00.646Z,102139.22
2023-08-17T10:52:38.408Z,102144.13
2023-08-17T10:55:11.110Z,102143.25
2023-08-17T10:57:40.045Z,102142.59
2023-08-17T11:00:33.054Z,102139.53
2023-08-17T11:03:12.340Z,102133.09
2023-08-17T11:05:43.419Z,102129.78
2023-08-17T11:08:14.877Z,102115.75
2023-08-17T11:10:41.569Z,102124.13
2023-08-17T11:13:08.479Z,102125.06
2023-08-17T11:15:39.045Z,102113.28
2023-08-17T11:18:09.910Z,102107.31
2023-08-17T11:20:39.357Z,102120.72
2023-08-17T11:23:10.129Z,102102.69
2023-08-17T11:25:38.512Z,102102.09
2023-08-17T11:28:08.141Z,102097.44
2023-08-17T11:30:36.755Z,102108.69
2023-08-17T11:33:03.735Z,102106.66
2023-08-17T11:35:30.197Z,102100.44
2023-08-17T11:37:56.626Z,102112.75
2023-08-17T11:40:23.444Z,102109.66
2023-08-17T11:42:50.247Z,102106.22
2023-08-17T11:45:16.910Z,102124.44
2023-08-17T11:47:44.586Z,102113.31
2023-08-17T11:50:20.579Z,102104.09
2023-08-17T11:52:48.368Z,102103.22
2023-08-17T11:55:19.064Z,102096.19
2023-08-17T11:57:46.080Z,102097.47
2023-08-17T12:00:22.669Z,102097.47
2023-08-17T12:02:50.396Z,102099.97
2023-08-17T12:05:22.868Z,102100.69
2023-08-17T12:07:49.437Z,102088.56
2023-08-17T12:10:16.154Z,102097.06
2023-08-17T12:12:42.775Z,102094.78
2023-08-17T12:15:12.889Z,102087.59
2023-08-17T12:17:46.373Z,102081.13
2023-08-17T12:20:22.345Z,102083.34
2023-08-17T12:22:49.093Z,102084.69
2023-08-17T12:25:16.369Z,102079.19
2023-08-17T12:27:43.090Z,102082.09
2023-08-17T12:30:27.959Z,102070.75
2023-08-17T12:32:56.008Z,102078.97
2023-08-17T12:35:25.559Z,102085.91
2023-08-17T12:37:53.922Z,102087.66
2023-08-17T12:40:21.268Z,102089.69
2023-08-17T12:42:48.361Z,102086.53
2023-08-17T12:45:16.167Z,102087.69
2023-08-17T12:47:42.978Z,102085.78
2023-08-17T12:50:09.864Z,102087.78
2023-08-17T12:52:36.557Z,102092.19
2023-08-17T12:55:03.264Z,102092.00
2023-08-17T12:57:29.786Z,102090.50
2023-08-17T12:59:56.293Z,102086.72
2023-08-17T13:02:22.859Z,102083.16
2023-08-17T13:04:49.402Z,102076.13
2023-08-17T13:07:16.890Z,102087.28
2023-08-17T13:09:43.411Z,102080.16
2023-08-17T13:12:09.893Z,102082.47
2023-08-17T13:14:37.056Z,102072.81
2023-08-17T13:17:03.793Z,102079.56
2023-08-17T13:19:30.366Z,102082.75
2023-08-17T13:21:56.874Z,102088.88
2023-08-17T13:24:23.373Z,102094.84
2023-08-17T13:26:53.799Z,102081.47
2023-08-17T13:29:20.963Z,102078.56
2023-08-17T13:31:49.131Z,102072.75
2023-08-17T13:34:15.798Z,102079.03
2023-08-17T13:36:42.522Z,102068.50
2023-08-17T13:39:09.052Z,102068.78
2023-08-17T13:41:35.605Z,102068.03
2023-08-17T13:44:03.608Z,102074.38
2023-08-17T13:46:31.256Z,102075.59
2023-08-17T13:48:57.777Z,102075.44
2023-08-17T13:51:24.238Z,102073.09
2023-08-17T13:53:50.739Z,102069.47
2023-08-17T13:56:18.304Z,102073.25
2023-08-17T13:58:44.770Z,102066.72
2023-08-17T14:01:12.805Z,102059.53
2023-08-17T14:03:39.504Z,102060.41
2023-08-17T14:06:06.150Z,102052.41
2023-08-17T14:08:32.584Z,102053.25
2023-08-17T14:10:59.067Z,102059.28
2023-08-17T14:13:25.536Z,102051.06
2023-08-17T14:15:52.119Z,102059.41
2023-08-17T14:18:18.878Z,102054.06
2023-08-17T14:20:45.458Z,102052.41
2023-08-17T14:23:11.956Z,102048.72
2023-08-17T14:25:38.442Z,102055.31
2023-08-17T14:28:06.507Z,102051.16
2023-08-17T14:30:33.044Z,102042.41
2023-08-17T14:33:01.588Z,102054.13
2023-08-17T14:35:28.990Z,102052.41
2023-08-17T14:37:58.780Z,102048.34
2023-08-17T14:40:25.459Z,102038.06
2023-08-17T14:42:54.625Z,102038.63
2023-08-17T14:45:21.422Z,102046.72
2023-08-17T14:47:47.930Z,102058.47
2023-08-17T14:50:15.192Z,102046.31
2023-08-17T14:52:42.180Z,102051.09
2023-08-17T14:55:10.220Z,102045.41
2023-08-17T14:57:36.969Z,102042.38
2023-08-17T15:00:05.211Z,102044.28
2023-08-17T15:02:31.914Z,102034.06
2023-08-17T15:04:58.429Z,102035.22
2023-08-17T15:07:25.464Z,102036.13
2023-08-17T15:09:53.956Z,102040.47
2023-08-17T15:12:22.741Z,102037.94
2023-08-17T15:14:50.694Z,102031.28
2023-08-17T15:17:17.086Z,102026.63
2023-08-17T15:19:43.585Z,102036.47
2023-08-17T15:22:15.534Z,102031.28
2023-08-17T15:24:44.440Z,102021.69
2023-08-17T15:27:11.143Z,102027.09
2023-08-17T15:29:37.613Z,102015.13
2023-08-17T15:32:04.188Z,102023.06
2023-08-17T15:34:30.710Z,102025.66
2023-08-17T15:36:57.217Z,102025.13
2023-08-17T15:39:23.727Z,102019.38
2023-08-17T15:41:50.239Z,102015.00
2023-08-17T15:44:16.914Z,102008.91
2023-08-17T15:46:43.485Z,102013.66
2023-08-17T15:49:10.066Z,102014.84
2023-08-17T15:51:36.642Z,102015.59
2023-08-17T15:54:03.238Z,102007.25
2023-08-17T15:56:29.787Z,102005.28
2023-08-17T15:58:56.328Z,102023.06
2023-08-17T16:01:22.871Z,102011.34
2023-08-17T16:03:49.567Z,102002.38
2023-08-17T16:06:16.158Z,101999.16
2023-08-17T16:08:49.094Z,101994.53
2023-08-17T16:11:16.086Z,101997.56
2023-08-17T16:16:12.245Z,102002.41
2023-08-17T16:18:38.735Z,101985.84
2023-08-17T16:21:13.854Z,101992.75
2023-08-17T16:23:42.364Z,101990.34
2023-08-17T16:26:09.177Z,101985.44
2023-08-17T16:28:35.655Z,101994.72
2023-08-17T16:31:05.258Z,101989.94
2023-08-17T16:33:32.598Z,101992.06
2023-08-17T16:35:59.554Z,101992.94
2023-08-17T16:38:26.104Z,101988.25
2023-08-17T16:40:52.686Z,101984.91
2023-08-17T16:43:21.203Z,101989.94
2023-08-17T16:45:47.987Z,101988.50
2023-08-17T16:48:14.733Z,101990.31
2023-08-17T16:50:41.292Z,101989.78
2023-08-17T16:53:07.847Z,101990.53
2023-08-17T16:55:35.156Z,101985.69
2023-08-17T16:58:02.152Z,101983.09
2023-08-17T17:00:28.853Z,101985.41
2023-08-17T17:02:55.370Z,101981.72
2023-08-17T17:05:21.953Z,101977.00
2023-08-17T17:07:48.543Z,101975.53
2023-08-17T17:10:16.474Z,101976.78
2023-08-17T17:12:42.971Z,101978.78
2023-08-17T17:15:09.940Z,101974.06
2023-08-17T17:17:36.565Z,101977.28
2023-08-17T17:20:04.660Z,101976.31
2023-08-17T17:22:31.213Z,101976.94
2023-08-17T17:24:57.673Z,101970.09
2023-08-17T17:27:24.202Z,101975.84
2023-08-17T17:29:50.671Z,101973.13
2023-08-17T17:32:17.119Z,101963.03
2023-08-17T17:34:43.587Z,101961.81
2023-08-17T17:37:10.074Z,101960.94
2023-08-17T17:39:36.602Z,101952.47
2023-08-17T17:42:03.205Z,101965.19
2023-08-17T17:44:29.802Z,101967.41
2023-08-17T17:46:56.350Z,101956.47
2023-08-17T17:49:23.177Z,101954.75
2023-08-17T17:51:49.945Z,101954.75
2023-08-17T17:54:16.513Z,101954.00
2023-08-17T17:56:44.918Z,101954.34
2023-08-17T17:59:11.912Z,101959.22
2023-08-17T18:01:38.998Z,101954.34
2023-08-17T18:04:05.916Z,101962.94
2023-08-17T18:06:33.728Z,101962.56
2023-08-17T18:09:00.217Z,101959.72
2023-08-17T18:11:26.988Z,101959.22
2023-08-17T18:13:53.644Z,101973.03
2023-08-17T18:16:20.275Z,101963.94
2023-08-17T18:18:47.006Z,101968.91
2023-08-17T18:21:13.481Z,101976.38
2023-08-17T18:23:39.958Z,101976.75
2023-08-17T18:26:06.441Z,101974.25
2023-08-17T18:28:33.054Z,101976.47
2023-08-17T18:30:59.903Z,101972.88
2023-08-17T18:33:26.429Z,101969.53
2023-08-17T18:35:54.038Z,101971.16
2023-08-17T18:38:23.297Z,101974.09
2023-08-17T18:40:52.279Z,101975.00
2023-08-17T18:43:20.618Z,101970.41
2023-08-17T18:45:47.252Z,101970.59
2023-08-17T18:48:13.889Z,101976.81
2023-08-17T18:50:40.554Z,101970.59
2023-08-17T18:53:08.100Z,101968.84
2023-08-17T18:55:34.713Z,101976.09
2023-08-17T18:58:01.786Z,101988.25
2023-08-17T19:00:28.611Z,101983.75
2023-08-17T19:02:55.262Z,101985.63
2023-08-17T19:05:22.164Z,101990.13
2023-08-17T19:07:49.101Z,101989.63
2023-08-17T19:10:16.495Z,101989.72
2023-08-17T19:12:43.136Z,101991.72
2023-08-17T19:15:10.355Z,101992.72
2023-08-17T19:17:37.290Z,101993.97
2023-08-17T19:20:04.245Z,101987.47
2023-08-17T19:22:30.997Z,101987.84
2023-08-17T19:24:57.634Z,101980.63
2023-08-17T19:27:24.473Z,101986.34
2023-08-17T19:29:51.188Z,101990.97
2023-08-17T19:32:17.864Z,101990.97
2023-08-17T19:34:44.676Z,101995.53
2023-08-17T19:37:11.437Z,102001.91
2023-08-17T19:39:38.178Z,102005.59
2023-08-17T19:42:05.064Z,101999.50
2023-08-17T19:44:31.772Z,102012.19
2023-08-17T19:46:58.352Z,102011.06
2023-08-17T19:49:28.141Z,102009.19
2023-08-17T19:51:55.332Z,102014.81
2023-08-17T19:54:21.928Z,102005.59
2023-08-17T19:56:49.016Z,102014.34
2023-08-17T19:59:15.454Z,102007.97
2023-08-17T20:01:41.990Z,102010.59
2023-08-17T20:04:11.945Z,102015.31
2023-08-17T20:06:38.596Z,102009.72
2023-08-17T20:09:05.575Z,102016.31
2023-08-17T20:11:32.163Z,102012.84
2023-08-17T20:13:58.832Z,102021.16
2023-08-17T20:16:25.479Z,102019.28
2023-08-17T20:18:52.396Z,102007.22
2023-08-17T20:21:19.045Z,102015.56
2023-08-17T20:23:45.793Z,102014.56
2023-08-17T20:26:12.684Z,102009.19
2023-08-17T20:28:40.062Z,102010.69
2023-08-17T20:31:07.508Z,102016.06
2023-08-17T20:33:34.267Z,102017.81
2023-08-17T20:36:00.857Z,102014.34
2023-08-17T20:38:27.629Z,102017.81
2023-08-17T20:40:54.541Z,102015.09
2023-08-17T20:43:21.100Z,102011.22
2023-08-17T20:45:47.815Z,102017.56
2023-08-17T20:48:14.593Z,102018.56
2023-08-17T20:50:43.397Z,102015.84
2023-08-17T20:53:09.904Z,102009.34
2023-08-17T20:55:39.278Z,102023.66
2023-08-17T20:58:06.015Z,102013.59
2023-08-17T21:00:33.750Z,102015.56
2023-08-17T21:03:00.283Z,102019.94
2023-08-17T21:05:28.768Z,102022.81
2023-08-17T21:07:56.334Z,102016.84
2023-08-17T21:10:24.486Z,102017.72
2023-08-17T21:12:51.420Z,102015.84
2023-08-17T21:15:17.957Z,102030.25
2023-08-17T21:17:45.940Z,102022.06
2023-08-17T21:20:12.890Z,102017.72
2023-08-17T21:22:51.533Z,102020.56
2023-08-17T21:25:19.247Z,102015.09
2023-08-17T21:27:45.809Z,102016.72
2023-08-17T21:30:12.404Z,102014.84
2023-08-17T21:32:38.966Z,102010.25
2023-08-17T21:35:06.373Z,102012.13
2023-08-17T21:37:33.104Z,102008.53
2023-08-17T21:39:59.688Z,102012.34
2023-08-17T21:42:26.331Z,102005.91
2023-08-17T21:44:52.826Z,102005.91
2023-08-17T21:47:19.460Z,102002.78
2023-08-17T21:49:48.034Z,102013.22
2023-08-17T21:52:16.467Z,102010.47
2023-08-17T21:54:43.191Z,101997.94
2023-08-17T21:57:09.684Z,101999.00
2023-08-17T21:59:36.148Z,102002.88
2023-08-17T22:02:03.403Z,102013.06
2023-08-17T22:04:33.396Z,102007.81
2023-08-17T22:07:02.536Z,101997.03
2023-08-17T22:09:29.760Z,102000.84
2023-08-17T22:11:57.063Z,102004.47
2023-08-17T22:14:23.655Z,102008.28
2023-08-17T22:16:50.476Z,102004.81
2023-08-17T22:19:17.359Z,102005.81
2023-08-17T22:21:43.852Z,101990.66
2023-08-17T22:24:10.895Z,101996.22
2023-08-17T22:26:37.497Z,101995.59
2023-08-17T22:29:04.554Z,101993.72
2023-08-17T22:31:32.015Z,101992.47
2023-08-17T22:33:58.495Z,101986.13
2023-08-17T22:36:25.254Z,101986.38
2023-08-17T22:38:51.933Z,101991.19
2023-08-17T22:41:18.385Z,101988.56
2023-08-17T22:43:44.906Z,101986.84
2023-08-17T22:46:11.571Z,101981.84
2023-08-17T22:48:38.109Z,101974.63
2023-08-17T22:51:04.568Z,101976.59
2023-08-17T22:53:31.099Z,101973.97
2023-08-17T22:55:57.823Z,101973.59
2023-08-17T22:58:24.267Z,101962.91
2023-08-17T23:00:50.773Z,101963.88
2023-08-17T23:03:17.389Z,101957.69
2023-08-17T23:05:44.667Z,101960.63
2023-08-17T23:08:11.174Z,101953.66
2023-08-17T23:10:37.941Z,101955.75
2023-08-17T23:13:04.608Z,101949.63
2023-08-17T23:15:31.090Z,101955.19
2023-08-17T23:17:57.604Z,101953.34
2023-08-17T23:20:24.146Z,101945.41
2023-08-17T23:22:50.642Z,101954.81
2023-08-17T23:25:17.396Z,101949.44
2023-08-17T23:27:43.992Z,101948.59
2023-08-17T23:30:11.323Z,101949.66
2023-08-17T23:32:38.118Z,101950.53
2023-08-17T23:35:05.290Z,101950.13
2023-08-17T23:37:32.073Z,101953.97
2023-08-17T23:39:58.742Z,101958.56
2023-08-17T23:42:25.210Z,101958.69
2023-08-17T23:44:51.648Z,101955.31
2023-08-17T23:47:18.191Z,101952.69
2023-08-17T23:49:45.574Z,101955.50
2023-08-17T23:52:12.426Z,101946.47
2023-08-17T23:54:39.139Z,101953.44
2023-08-17T23:57:05.838Z,101953.69
2023-08-17T23:59:32.322Z,101954.75
